createdAt,value
2019-02-23T00:00:12.742Z,75.80
2019-02-23T00:02:40.937Z,75.69
2019-02-23T00:05:07.256Z,75.73
2019-02-23T00:07:33.561Z,75.69
2019-02-23T00:09:59.795Z,75.27
2019-02-23T00:12:26.075Z,75.26
2019-02-23T00:14:52.295Z,75.40
2019-02-23T00:17:18.412Z,75.59
2019-02-23T00:19:44.542Z,75.79
2019-02-23T00:22:10.792Z,75.51
2019-02-23T00:24:36.903Z,74.95
2019-02-23T00:27:03.176Z,75.19
2019-02-23T00:29:29.512Z,75.15
2019-02-23T00:31:55.636Z,75.07
2019-02-23T00:34:21.864Z,75.06
2019-02-23T00:36:48.035Z,74.94
2019-02-23T00:39:14.260Z,74.79
2019-02-23T00:41:40.479Z,74.80
2019-02-23T00:44:06.583Z,74.59
2019-02-23T00:46:33.959Z,74.48
2019-02-23T00:49:00.085Z,74.62
2019-02-23T00:51:26.289Z,74.62
2019-02-23T00:53:52.511Z,74.32
2019-02-23T00:56:18.761Z,74.37
2019-02-23T00:58:44.851Z,74.31
2019-02-23T01:01:11.205Z,74.47
2019-02-23T01:03:37.404Z,74.24
2019-02-23T01:06:03.776Z,73.98
2019-02-23T01:08:29.873Z,73.81
2019-02-23T01:10:58.331Z,73.63
2019-02-23T01:13:24.204Z,73.69
2019-02-23T01:15:51.611Z,73.41
2019-02-23T01:18:17.918Z,73.63
2019-02-23T01:20:44.279Z,73.59
2019-02-23T01:23:10.610Z,73.51
2019-02-23T01:25:36.780Z,73.46
2019-02-23T01:28:03.262Z,73.14
2019-02-23T01:30:29.509Z,73.40
2019-02-23T01:32:55.730Z,73.64
2019-02-23T01:35:21.965Z,72.94
2019-02-23T01:37:48.378Z,73.30
2019-02-23T01:40:14.988Z,73.02
2019-02-23T01:42:41.060Z,72.92
2019-02-23T01:45:07.683Z,73.06
2019-02-23T01:47:34.119Z,72.87
2019-02-23T01:50:00.452Z,72.79
2019-02-23T01:52:26.760Z,72.87
2019-02-23T01:54:52.865Z,72.76
2019-02-23T01:57:18.962Z,72.19
2019-02-23T01:59:45.222Z,72.35
2019-02-23T02:02:12.065Z,72.70
2019-02-23T02:04:38.510Z,72.86
2019-02-23T02:07:04.802Z,72.86
2019-02-23T02:09:31.085Z,72.31
2019-02-23T02:11:57.600Z,72.41
2019-02-23T02:14:23.811Z,72.40
2019-02-23T02:16:49.976Z,72.17
2019-02-23T02:19:16.108Z,72.19
2019-02-23T02:21:42.340Z,72.63
2019-02-23T02:24:08.742Z,72.61
2019-02-23T02:26:34.946Z,72.49
2019-02-23T02:29:02.441Z,72.65
2019-02-23T02:31:28.736Z,72.42
2019-02-23T02:34:06.962Z,72.30
2019-02-23T02:36:33.343Z,71.94
2019-02-23T02:38:59.450Z,71.75
2019-02-23T02:41:25.702Z,70.94
2019-02-23T02:43:51.932Z,71.37
2019-02-23T02:46:18.131Z,71.07
2019-02-23T02:48:44.495Z,71.27
2019-02-23T02:51:10.854Z,71.05
2019-02-23T02:53:37.211Z,70.48
2019-02-23T02:56:03.641Z,70.72
2019-02-23T02:58:29.767Z,70.97
2019-02-23T03:00:56.101Z,70.69
2019-02-23T03:03:22.362Z,70.96
2019-02-23T03:05:48.567Z,70.45
2019-02-23T03:08:14.930Z,71.12
2019-02-23T03:10:41.090Z,70.74
2019-02-23T03:13:07.413Z,71.27
2019-02-23T03:15:33.695Z,71.18
2019-02-23T03:17:59.941Z,71.13
2019-02-23T03:20:36.184Z,70.68
2019-02-23T03:22:54.287Z,70.83
2019-02-23T03:25:20.418Z,70.58
2019-02-23T03:27:46.549Z,70.65
2019-02-23T03:30:12.935Z,70.55
2019-02-23T03:32:39.097Z,70.78
2019-02-23T03:35:05.541Z,70.97
2019-02-23T03:37:31.705Z,70.82
2019-02-23T03:39:57.903Z,71.15
2019-02-23T03:42:24.151Z,71.26
2019-02-23T03:44:50.354Z,71.08
2019-02-23T03:47:16.638Z,71.26
2019-02-23T03:49:42.856Z,71.26
2019-02-23T03:52:09.146Z,70.99
2019-02-23T03:54:35.445Z,71.07
2019-02-23T03:57:01.670Z,71.12
2019-02-23T03:59:27.964Z,71.23
2019-02-23T04:01:54.167Z,71.78
2019-02-23T04:04:20.289Z,72.24
2019-02-23T04:06:46.505Z,72.07
2019-02-23T04:09:12.773Z,71.86
2019-02-23T04:11:39.020Z,71.37
2019-02-23T04:14:08.745Z,71.03
2019-02-23T04:16:34.887Z,71.18
2019-02-23T04:19:05.364Z,70.71
2019-02-23T04:21:31.471Z,71.18
2019-02-23T04:23:57.577Z,71.53
2019-02-23T04:26:23.894Z,71.80
2019-02-23T04:28:50.235Z,71.09
2019-02-23T04:31:23.907Z,70.90
2019-02-23T04:33:50.084Z,70.78
2019-02-23T04:36:16.243Z,70.79
2019-02-23T04:38:42.501Z,70.91
2019-02-23T04:41:09.345Z,70.86
2019-02-23T04:43:35.477Z,71.19
2019-02-23T04:46:16.119Z,70.87
2019-02-23T04:48:42.522Z,70.39
2019-02-23T04:51:14.187Z,70.68
2019-02-23T04:53:36.820Z,70.42
2019-02-23T04:56:09.507Z,70.25
2019-02-23T04:58:35.726Z,70.54
2019-02-23T05:01:14.663Z,70.68
2019-02-23T05:03:40.896Z,70.70
2019-02-23T05:06:07.128Z,70.69
2019-02-23T05:08:33.648Z,70.65
2019-02-23T05:10:59.947Z,69.88
2019-02-23T05:13:26.128Z,69.77
2019-02-23T05:15:52.442Z,70.17
2019-02-23T05:18:18.647Z,69.60
2019-02-23T05:20:44.863Z,69.88
2019-02-23T05:23:11.007Z,69.88
2019-02-23T05:25:37.091Z,70.00
2019-02-23T05:28:06.073Z,69.89
2019-02-23T05:30:32.426Z,69.54
2019-02-23T05:32:58.736Z,69.65
2019-02-23T05:35:24.938Z,69.80
2019-02-23T05:37:53.000Z,70.01
2019-02-23T05:40:24.044Z,69.57
2019-02-23T05:43:00.582Z,69.35
2019-02-23T05:45:19.783Z,70.09
2019-02-23T05:47:46.110Z,69.80
2019-02-23T05:50:12.219Z,69.93
2019-02-23T05:52:38.452Z,69.71
2019-02-23T05:55:06.311Z,69.83
2019-02-23T05:57:32.446Z,69.37
2019-02-23T05:59:58.580Z,69.42
2019-02-23T06:02:24.884Z,69.20
2019-02-23T06:04:50.985Z,68.75
2019-02-23T06:07:17.266Z,68.62
2019-02-23T06:09:43.897Z,69.18
2019-02-23T06:12:10.307Z,69.29
2019-02-23T06:14:36.596Z,69.68
2019-02-23T06:17:06.806Z,69.60
2019-02-23T06:19:32.935Z,69.63
2019-02-23T06:21:59.141Z,69.42
2019-02-23T06:24:25.355Z,69.36
2019-02-23T06:26:51.953Z,69.43
2019-02-23T06:29:18.364Z,69.66
2019-02-23T06:31:44.664Z,69.34
2019-02-23T06:34:16.136Z,69.73
2019-02-23T06:36:38.918Z,69.68
2019-02-23T06:39:07.439Z,69.41
2019-02-23T06:41:33.855Z,69.66
2019-02-23T06:44:00.070Z,69.44
2019-02-23T06:46:26.191Z,69.10
2019-02-23T06:48:52.552Z,69.45
2019-02-23T06:51:19.187Z,69.72
2019-02-23T06:53:45.741Z,70.18
2019-02-23T06:56:12.075Z,70.50
2019-02-23T06:58:38.660Z,70.12
2019-02-23T07:01:06.624Z,69.21
2019-02-23T07:03:32.759Z,69.83
2019-02-23T07:05:59.025Z,69.65
2019-02-23T07:08:25.383Z,69.70
2019-02-23T07:10:51.641Z,69.60
2019-02-23T07:13:17.998Z,69.74
2019-02-23T07:15:44.256Z,69.60
2019-02-23T07:18:10.502Z,69.34
2019-02-23T07:20:44.138Z,69.16
2019-02-23T07:25:37.347Z,68.83
2019-02-23T07:28:05.971Z,68.66
2019-02-23T07:30:32.996Z,69.00
2019-02-23T07:32:59.164Z,68.59
2019-02-23T07:35:26.431Z,68.53
2019-02-23T07:37:52.766Z,68.91
2019-02-23T07:40:19.033Z,68.65
2019-02-23T07:42:45.120Z,68.86
2019-02-23T07:45:11.576Z,68.67
2019-02-23T07:47:38.799Z,68.58
2019-02-23T07:50:13.520Z,68.58
2019-02-23T07:52:39.959Z,68.32
2019-02-23T07:55:13.333Z,68.38
2019-02-23T07:57:39.580Z,68.40
2019-02-23T08:00:09.779Z,68.56
2019-02-23T08:02:41.903Z,68.69
2019-02-23T08:05:08.865Z,68.46
2019-02-23T08:07:35.159Z,68.41
2019-02-23T08:10:10.459Z,67.96
2019-02-23T08:12:36.801Z,67.68
2019-02-23T08:15:09.612Z,67.75
2019-02-23T08:17:38.593Z,67.72
2019-02-23T08:20:18.093Z,67.26
2019-02-23T08:22:44.301Z,67.37
2019-02-23T08:25:14.425Z,66.74
2019-02-23T08:27:40.952Z,66.56
2019-02-23T08:30:12.740Z,66.76
2019-02-23T08:32:39.189Z,66.29
2019-02-23T08:35:12.868Z,66.64
2019-02-23T08:37:44.261Z,66.10
2019-02-23T08:40:12.384Z,65.92
2019-02-23T08:42:38.621Z,66.55
2019-02-23T08:45:07.237Z,66.00
2019-02-23T08:47:33.541Z,65.82
2019-02-23T08:49:59.633Z,65.36
2019-02-23T08:52:25.976Z,65.32
2019-02-23T08:54:52.184Z,64.59
2019-02-23T08:57:19.492Z,64.95
2019-02-23T08:59:45.712Z,64.40
2019-02-23T09:02:11.951Z,65.03
2019-02-23T09:04:38.240Z,64.94
2019-02-23T09:07:04.398Z,64.35
2019-02-23T09:09:30.626Z,63.57
2019-02-23T09:11:56.827Z,63.80
2019-02-23T09:14:22.958Z,63.82
2019-02-23T09:16:49.038Z,63.37
2019-02-23T09:19:15.283Z,63.27
2019-02-23T09:21:41.719Z,63.47
2019-02-23T09:24:07.862Z,62.99
2019-02-23T09:26:34.111Z,62.96
2019-02-23T09:29:00.437Z,62.42
2019-02-23T09:31:26.811Z,62.46
2019-02-23T09:33:53.269Z,61.92
2019-02-23T09:36:19.512Z,60.12
2019-02-23T09:38:45.722Z,60.98
2019-02-23T09:41:11.959Z,61.50
2019-02-23T09:43:38.317Z,60.87
2019-02-23T09:46:04.429Z,61.02
2019-02-23T09:48:30.891Z,60.82
2019-02-23T09:50:57.128Z,61.67
2019-02-23T09:53:23.466Z,60.84
2019-02-23T09:55:49.778Z,60.16
2019-02-23T09:58:16.250Z,60.66
2019-02-23T10:00:42.664Z,59.72
2019-02-23T10:03:08.880Z,59.94
2019-02-23T10:05:34.984Z,60.12
2019-02-23T10:08:01.235Z,59.82
2019-02-23T10:10:27.326Z,59.46
2019-02-23T10:12:54.618Z,58.61
2019-02-23T10:15:20.933Z,60.26
2019-02-23T10:17:47.062Z,60.55
2019-02-23T10:20:14.291Z,60.32
2019-02-23T10:22:40.650Z,58.60
2019-02-23T10:25:07.199Z,58.47
2019-02-23T10:27:33.563Z,57.92
2019-02-23T10:30:00.006Z,56.95
2019-02-23T10:32:26.823Z,57.95
2019-02-23T10:34:53.071Z,58.35
2019-02-23T10:37:19.325Z,57.80
2019-02-23T10:39:45.604Z,57.45
2019-02-23T10:42:11.839Z,56.57
2019-02-23T10:44:38.081Z,56.24
2019-02-23T10:47:04.321Z,56.58
2019-02-23T10:49:30.486Z,57.17
2019-02-23T10:51:56.877Z,55.89
2019-02-23T10:54:23.261Z,56.22
2019-02-23T10:56:49.561Z,54.57
2019-02-23T10:59:15.904Z,55.47
2019-02-23T11:01:43.413Z,55.74
2019-02-23T11:04:09.882Z,55.47
2019-02-23T11:06:38.413Z,53.99
2019-02-23T11:09:07.096Z,55.26
2019-02-23T11:11:34.841Z,55.01
2019-02-23T11:14:01.144Z,54.79
2019-02-23T11:16:27.469Z,55.29
2019-02-23T11:18:53.584Z,55.13
2019-02-23T11:21:19.981Z,56.08
2019-02-23T11:23:46.279Z,55.12
2019-02-23T11:26:12.644Z,54.43
2019-02-23T11:28:39.044Z,54.49
2019-02-23T11:31:06.300Z,54.22
2019-02-23T11:33:32.765Z,52.36
2019-02-23T11:35:59.203Z,52.97
2019-02-23T11:38:25.720Z,51.56
2019-02-23T11:40:52.098Z,52.44
2019-02-23T11:43:18.558Z,51.34
2019-02-23T11:45:45.153Z,51.10
2019-02-23T11:48:11.514Z,50.17
2019-02-23T11:50:37.941Z,50.29
2019-02-23T11:53:04.221Z,49.87
2019-02-23T11:55:30.917Z,49.39
2019-02-23T11:57:57.369Z,48.15
2019-02-23T12:00:23.677Z,48.38
2019-02-23T12:02:52.703Z,47.40
2019-02-23T12:05:18.294Z,48.86
2019-02-23T12:07:44.854Z,48.88
2019-02-23T12:10:15.710Z,48.42
2019-02-23T12:12:55.514Z,49.13
2019-02-23T12:15:33.918Z,49.58
2019-02-23T12:21:08.656Z,48.07
2019-02-23T12:23:35.082Z,47.76
2019-02-23T12:26:01.559Z,48.25
2019-02-23T12:28:28.133Z,46.23
2019-02-23T12:30:54.647Z,46.00
2019-02-23T12:33:20.857Z,45.55
2019-02-23T12:35:47.166Z,45.82
2019-02-23T12:38:13.510Z,45.81
2019-02-23T12:40:39.910Z,46.56
2019-02-23T12:43:06.222Z,45.61
2019-02-23T12:45:32.453Z,45.79
2019-02-23T12:47:58.632Z,44.81
2019-02-23T12:50:25.025Z,44.09
2019-02-23T12:52:51.420Z,43.51
2019-02-23T12:55:17.698Z,44.58
2019-02-23T12:57:44.170Z,43.95
2019-02-23T13:00:17.503Z,42.12
2019-02-23T13:02:43.852Z,41.25
2019-02-23T13:05:10.123Z,41.62
2019-02-23T13:07:36.536Z,40.88
2019-02-23T13:10:15.681Z,41.45
2019-02-23T13:13:08.893Z,41.12
2019-02-23T13:15:47.791Z,39.49
2019-02-23T13:18:36.191Z,40.08
2019-02-23T13:21:15.331Z,39.53
2019-02-23T13:24:07.352Z,39.88
2019-02-23T13:26:50.588Z,38.19
2019-02-23T13:29:20.721Z,36.69
2019-02-23T13:32:16.907Z,36.55
2019-02-23T13:35:05.674Z,35.23
2019-02-23T13:37:51.710Z,34.62
2019-02-23T13:40:39.065Z,34.34
2019-02-23T13:43:16.492Z,34.57
2019-02-23T13:45:52.626Z,35.18
2019-02-23T13:48:34.446Z,34.84
2019-02-23T13:51:23.703Z,34.95
2019-02-23T13:54:10.703Z,34.79
2019-02-23T13:56:40.650Z,35.55
2019-02-23T13:59:13.575Z,35.47
2019-02-23T14:02:06.266Z,33.82
2019-02-23T14:04:53.586Z,35.36
2019-02-23T14:07:32.900Z,34.73
2019-02-23T14:10:36.876Z,34.80
2019-02-23T14:13:29.571Z,33.98
2019-02-23T14:16:19.312Z,33.58
2019-02-23T14:18:52.348Z,34.09
2019-02-23T14:21:43.097Z,34.36
2019-02-23T14:24:18.793Z,34.38
2019-02-23T14:27:14.944Z,35.12
2019-02-23T14:29:58.739Z,34.38
2019-02-23T14:32:55.520Z,34.38
2019-02-23T14:35:31.307Z,34.14
2019-02-23T14:38:19.809Z,33.59
2019-02-23T14:46:42.566Z,34.25
2019-02-23T14:49:34.961Z,33.98
2019-02-23T14:52:16.890Z,34.11
2019-02-23T14:55:00.918Z,33.98
2019-02-23T14:57:57.202Z,34.30
2019-02-23T15:00:37.177Z,34.47
2019-02-23T15:03:24.591Z,34.44
2019-02-23T15:06:08.994Z,34.22
2019-02-23T15:08:48.352Z,34.53
2019-02-23T15:11:28.433Z,34.15
2019-02-23T15:14:05.880Z,34.96
2019-02-23T15:17:11.232Z,34.56
2019-02-23T15:20:13.528Z,35.68
2019-02-23T15:25:40.479Z,34.72
2019-02-23T15:29:24.699Z,34.48
2019-02-23T15:32:28.010Z,33.96
2019-02-23T15:34:57.933Z,35.17
2019-02-23T15:37:47.710Z,35.34
2019-02-23T15:40:28.102Z,35.25
2019-02-23T15:43:07.386Z,35.70
2019-02-23T15:45:40.476Z,36.71
2019-02-23T15:48:24.140Z,36.52
2019-02-23T15:50:50.604Z,36.51
2019-02-23T15:53:16.898Z,36.13
2019-02-23T15:55:55.410Z,36.85
2019-02-23T15:58:27.600Z,37.10
2019-02-23T16:00:53.945Z,37.16
2019-02-23T16:03:20.220Z,37.01
2019-02-23T16:05:46.477Z,37.12
2019-02-23T16:08:12.609Z,36.51
2019-02-23T16:10:40.706Z,37.07
2019-02-23T16:13:07.201Z,37.28
2019-02-23T16:15:33.551Z,37.38
2019-02-23T16:18:00.409Z,37.82
2019-02-23T16:20:26.958Z,36.98
2019-02-23T16:22:53.080Z,37.80
2019-02-23T16:25:19.522Z,37.87
2019-02-23T16:27:47.015Z,38.42
2019-02-23T16:30:18.569Z,38.71
2019-02-23T16:32:44.824Z,38.92
2019-02-23T16:35:11.254Z,38.51
2019-02-23T16:37:44.328Z,39.71
2019-02-23T16:40:14.222Z,39.89
2019-02-23T16:42:40.658Z,40.81
2019-02-23T16:45:07.620Z,39.87
2019-02-23T16:47:34.007Z,40.05
2019-02-23T16:50:00.358Z,41.15
2019-02-23T16:52:26.457Z,41.12
2019-02-23T16:54:52.743Z,41.38
2019-02-23T16:57:18.998Z,41.51
2019-02-23T16:59:45.331Z,41.96
2019-02-23T17:02:17.508Z,42.01
2019-02-23T17:04:53.667Z,42.14
2019-02-23T17:07:14.861Z,42.63
2019-02-23T17:09:41.284Z,43.09
2019-02-23T17:12:07.753Z,42.94
2019-02-23T17:14:35.225Z,43.84
2019-02-23T17:17:06.388Z,44.53
2019-02-23T17:19:32.757Z,44.49
2019-02-23T17:21:59.106Z,44.00
2019-02-23T17:24:25.488Z,44.20
2019-02-23T17:26:52.050Z,44.34
2019-02-23T17:29:22.510Z,44.12
2019-02-23T17:31:51.056Z,44.65
2019-02-23T17:36:56.924Z,44.90
2019-02-23T17:39:23.127Z,45.08
2019-02-23T17:41:49.391Z,45.78
2019-02-23T17:44:15.696Z,45.35
2019-02-23T17:46:41.893Z,45.45
2019-02-23T17:49:08.236Z,46.10
2019-02-23T17:51:34.630Z,46.17
2019-02-23T17:54:00.983Z,46.09
2019-02-23T17:56:27.210Z,45.95
2019-02-23T17:58:53.451Z,45.71
2019-02-23T18:01:19.969Z,46.00
2019-02-23T18:03:46.315Z,45.98
2019-02-23T18:06:12.553Z,46.29
2019-02-23T18:08:38.662Z,46.48
2019-02-23T18:11:05.071Z,46.41
2019-02-23T18:13:31.418Z,46.64
2019-02-23T18:15:57.669Z,46.17
2019-02-23T18:18:24.033Z,46.49
2019-02-23T18:20:50.401Z,47.02
2019-02-23T18:23:16.857Z,45.98
2019-02-23T18:25:43.127Z,46.28
2019-02-23T18:28:14.002Z,45.82
2019-02-23T18:30:40.602Z,45.52
2019-02-23T18:33:07.312Z,46.42
2019-02-23T18:35:34.560Z,47.26
2019-02-23T18:38:02.072Z,46.92
2019-02-23T18:40:28.617Z,46.90
2019-02-23T18:42:55.125Z,46.71
2019-02-23T18:45:21.594Z,46.67
2019-02-23T18:47:48.473Z,46.28
2019-02-23T18:50:14.911Z,46.54
2019-02-23T18:52:41.279Z,46.16
2019-02-23T18:55:07.682Z,46.48
2019-02-23T18:57:34.429Z,46.70
2019-02-23T19:00:00.747Z,47.17
2019-02-23T19:02:27.276Z,46.73
2019-02-23T19:04:53.583Z,45.94
2019-02-23T19:07:19.686Z,47.03
2019-02-23T19:09:46.013Z,46.39
2019-02-23T19:12:12.500Z,47.17
2019-02-23T19:14:38.876Z,46.73
2019-02-23T19:17:05.417Z,47.66
2019-02-23T19:19:31.736Z,47.04
2019-02-23T19:21:57.918Z,46.96
2019-02-23T19:24:24.188Z,47.42
2019-02-23T19:26:50.558Z,47.36
2019-02-23T19:29:16.891Z,47.13
2019-02-23T19:31:43.445Z,47.36
2019-02-23T19:34:09.653Z,47.50
2019-02-23T19:36:36.182Z,48.49
2019-02-23T19:39:03.573Z,47.93
2019-02-23T19:41:31.691Z,47.49
2019-02-23T19:43:57.945Z,48.36
2019-02-23T19:46:24.765Z,47.83
2019-02-23T19:48:51.024Z,48.18
2019-02-23T19:51:17.459Z,47.71
2019-02-23T19:53:44.418Z,47.97
2019-02-23T19:56:10.979Z,48.46
2019-02-23T19:58:37.852Z,47.74
2019-02-23T20:01:04.213Z,49.00
2019-02-23T20:03:30.515Z,48.62
2019-02-23T20:05:56.972Z,49.06
2019-02-23T20:08:23.203Z,48.62
2019-02-23T20:10:49.475Z,49.35
2019-02-23T20:13:15.722Z,49.15
2019-02-23T20:15:41.937Z,48.88
2019-02-23T20:18:08.912Z,48.64
2019-02-23T20:20:35.370Z,49.42
2019-02-23T20:23:02.051Z,50.11
2019-02-23T20:25:28.733Z,49.83
2019-02-23T20:27:55.118Z,49.16
2019-02-23T20:30:21.607Z,48.51
2019-02-23T20:32:47.959Z,48.94
2019-02-23T20:35:15.731Z,49.59
2019-02-23T20:37:42.543Z,49.05
2019-02-23T20:40:09.109Z,50.77
2019-02-23T20:42:35.434Z,50.69
2019-02-23T20:45:02.528Z,50.64
2019-02-23T20:47:29.115Z,50.74
2019-02-23T20:49:55.585Z,50.26
2019-02-23T20:52:21.948Z,50.61
2019-02-23T20:54:48.190Z,51.43
2019-02-23T20:57:14.583Z,50.86
2019-02-23T20:59:41.252Z,50.57
2019-02-23T21:02:07.461Z,49.95
2019-02-23T21:04:34.090Z,50.94
2019-02-23T21:07:00.493Z,51.21
2019-02-23T21:09:27.033Z,50.33
2019-02-23T21:11:53.499Z,51.37
2019-02-23T21:14:20.090Z,51.17
2019-02-23T21:16:46.438Z,50.48
2019-02-23T21:19:12.921Z,50.08
2019-02-23T21:21:39.233Z,50.47
2019-02-23T21:24:05.451Z,51.02
2019-02-23T21:26:31.682Z,51.22
2019-02-23T21:28:58.016Z,51.34
2019-02-23T21:31:24.367Z,51.22
2019-02-23T21:33:50.644Z,51.47
2019-02-23T21:36:16.958Z,51.16
2019-02-23T21:38:43.207Z,51.42
2019-02-23T21:41:09.363Z,51.14
2019-02-23T21:43:35.622Z,51.60
2019-02-23T21:46:02.058Z,51.79
2019-02-23T21:48:28.379Z,51.58
2019-02-23T21:50:54.533Z,51.21
2019-02-23T21:53:21.006Z,51.45
2019-02-23T21:55:47.612Z,51.55
2019-02-23T21:58:13.801Z,51.73
2019-02-23T22:00:40.123Z,50.81
2019-02-23T22:03:07.163Z,50.67
2019-02-23T22:05:33.645Z,50.51
2019-02-23T22:08:00.520Z,50.48
2019-02-23T22:10:26.888Z,50.78
2019-02-23T22:12:53.186Z,50.34
2019-02-23T22:15:19.451Z,50.58
2019-02-23T22:17:46.107Z,50.48
2019-02-23T22:20:12.324Z,50.55
2019-02-23T22:22:38.668Z,49.94
2019-02-23T22:25:05.173Z,50.75
2019-02-23T22:27:31.771Z,50.35
2019-02-23T22:29:58.419Z,50.67
2019-02-23T22:32:24.966Z,50.25
2019-02-23T22:34:51.561Z,50.72
2019-02-23T22:37:18.512Z,50.21
2019-02-23T22:39:45.139Z,50.67
2019-02-23T22:42:11.341Z,50.93
2019-02-23T22:44:37.683Z,51.93
2019-02-23T22:47:04.209Z,51.66
2019-02-23T22:49:30.705Z,51.47
2019-02-23T22:51:57.219Z,50.53
2019-02-23T22:54:23.534Z,51.74
2019-02-23T22:56:49.964Z,51.54
2019-02-23T22:59:16.481Z,51.37
2019-02-23T23:01:43.444Z,51.89
2019-02-23T23:04:10.029Z,51.66
2019-02-23T23:06:36.786Z,51.60
2019-02-23T23:09:06.481Z,51.74
2019-02-23T23:11:33.459Z,51.54
2019-02-23T23:14:00.132Z,51.68
2019-02-23T23:16:26.558Z,50.56
2019-02-23T23:18:53.300Z,51.08
2019-02-23T23:21:22.945Z,50.95
2019-02-23T23:23:49.256Z,50.93
2019-02-23T23:26:26.573Z,51.31
2019-02-23T23:28:52.901Z,51.92
2019-02-23T23:31:19.515Z,51.75
2019-02-23T23:33:49.533Z,52.03
2019-02-23T23:36:15.792Z,51.14
2019-02-23T23:38:42.034Z,50.90
2019-02-23T23:41:08.307Z,51.54
2019-02-23T23:43:34.520Z,51.57
2019-02-23T23:46:00.749Z,51.48
2019-02-23T23:48:28.741Z,50.95
2019-02-23T23:50:55.105Z,50.69
2019-02-23T23:53:22.545Z,51.32
2019-02-23T23:55:49.043Z,51.62
2019-02-23T23:58:15.288Z,50.68
